Walled Lake, Michigan
Current Conditions -  °F | °C
As of 10:53 AM on Friday 24 Oct 2014 (Local Time) from KPTK Reporting Station
Broken Clouds Broken Clouds  
Wind Chill: 45°   Ceiling: 5000
Heat Index: 47°   Visibility: 7mi
Dew Point: 41°   Wind: 5mph
Humidity: 80%   Direction: 280°W
Pressure: 30.07"   Gusts: NA
Location:  42.54°N, 83.47°W
Report Text: KPTK 241453Z 28004KT 7SM BKN050 08/05 A3007 RMK AO2 SLP187 T00830050 51002
Loading
Personal Weather Stations






























Interactive Weather Map New forecast layout! Learn more

10-Day Weather Forecast

Advertisements
Track Severe Weather on mobile